sensor_id;sensor_type;location;lat;lon;timestamp;temperature;humidity
16392;DHT22;8305;-33.882;151.134;2022-11-23T00:01:57;23.80;99.90
16392;DHT22;8305;-33.882;151.134;2022-11-23T00:04:30;23.80;99.90
16392;DHT22;8305;-33.882;151.134;2022-11-23T00:07:01;23.70;99.90
16392;DHT22;8305;-33.882;151.134;2022-11-23T00:09:32;23.90;99.90
16392;DHT22;8305;-33.882;151.134;2022-11-23T00:12:08;23.90;99.90
16392;DHT22;8305;-33.882;151.134;2022-11-23T00:14:41;24.00;99.90
16392;DHT22;8305;-33.882;151.134;2022-11-23T00:17:16;24.00;99.90
16392;DHT22;8305;-33.882;151.134;2022-11-23T00:19:47;24.30;99.90
16392;DHT22;8305;-33.882;151.134;2022-11-23T00:22:18;24.50;99.90
16392;DHT22;8305;-33.882;151.134;2022-11-23T00:24:50;24.30;99.90
16392;DHT22;8305;-33.882;151.134;2022-11-23T00:27:23;24.30;99.90
16392;DHT22;8305;-33.882;151.134;2022-11-23T00:29:54;24.50;99.90
16392;DHT22;8305;-33.882;151.134;2022-11-23T00:32:30;24.60;99.90
16392;DHT22;8305;-33.882;151.134;2022-11-23T00:35:01;24.80;99.90
16392;DHT22;8305;-33.882;151.134;2022-11-23T00:37:32;24.60;99.90
16392;DHT22;8305;-33.882;151.134;2022-11-23T00:40:04;24.50;99.90
16392;DHT22;8305;-33.882;151.134;2022-11-23T00:42:35;24.40;99.90
16392;DHT22;8305;-33.882;151.134;2022-11-23T00:45:07;24.30;99.90
16392;DHT22;8305;-33.882;151.134;2022-11-23T00:47:41;24.20;99.90
16392;DHT22;8305;-33.882;151.134;2022-11-23T00:50:13;24.30;99.90
16392;DHT22;8305;-33.882;151.134;2022-11-23T00:52:44;24.40;99.90
16392;DHT22;8305;-33.882;151.134;2022-11-23T00:55:17;24.40;99.90
16392;DHT22;8305;-33.882;151.134;2022-11-23T00:57:49;24.50;99.90
16392;DHT22;8305;-33.882;151.134;2022-11-23T01:00:23;24.60;99.90
16392;DHT22;8305;-33.882;151.134;2022-11-23T01:02:58;24.90;99.90
16392;DHT22;8305;-33.882;151.134;2022-11-23T01:05:29;25.10;99.90
16392;DHT22;8305;-33.882;151.134;2022-11-23T01:08:01;25.20;99.90
16392;DHT22;8305;-33.882;151.134;2022-11-23T01:10:33;25.20;99.90
16392;DHT22;8305;-33.882;151.134;2022-11-23T01:13:04;25.10;99.90
16392;DHT22;8305;-33.882;151.134;2022-11-23T01:15:36;25.20;99.90
16392;DHT22;8305;-33.882;151.134;2022-11-23T01:18:12;25.30;99.90
16392;DHT22;8305;-33.882;151.134;2022-11-23T01:20:43;25.30;99.90
16392;DHT22;8305;-33.882;151.134;2022-11-23T01:23:16;25.40;99.90
16392;DHT22;8305;-33.882;151.134;2022-11-23T01:25:48;25.30;99.90
16392;DHT22;8305;-33.882;151.134;2022-11-23T01:28:20;25.40;99.90
16392;DHT22;8305;-33.882;151.134;2022-11-23T01:31:01;25.40;99.90
16392;DHT22;8305;-33.882;151.134;2022-11-23T01:33:38;25.40;99.90
16392;DHT22;8305;-33.882;151.134;2022-11-23T01:36:14;25.50;99.90
16392;DHT22;8305;-33.882;151.134;2022-11-23T01:38:53;25.80;99.90
16392;DHT22;8305;-33.882;151.134;2022-11-23T01:41:27;26.10;99.90
16392;DHT22;8305;-33.882;151.134;2022-11-23T01:43:59;26.20;99.90
16392;DHT22;8305;-33.882;151.134;2022-11-23T01:46:30;25.90;99.90
16392;DHT22;8305;-33.882;151.134;2022-11-23T01:49:07;25.90;99.90
16392;DHT22;8305;-33.882;151.134;2022-11-23T01:51:40;25.80;99.90
16392;DHT22;8305;-33.882;151.134;2022-11-23T01:54:15;25.80;99.90
16392;DHT22;8305;-33.882;151.134;2022-11-23T01:56:52;25.70;99.90
16392;DHT22;8305;-33.882;151.134;2022-11-23T01:59:26;25.80;99.90
16392;DHT22;8305;-33.882;151.134;2022-11-23T02:01:59;25.80;99.90
16392;DHT22;8305;-33.882;151.134;2022-11-23T02:04:36;25.90;99.90
16392;DHT22;8305;-33.882;151.134;2022-11-23T02:07:10;26.00;99.90
16392;DHT22;8305;-33.882;151.134;2022-11-23T02:09:42;26.20;99.90
16392;DHT22;8305;-33.882;151.134;2022-11-23T02:12:14;26.40;99.90
16392;DHT22;8305;-33.882;151.134;2022-11-23T02:14:47;26.70;99.90
16392;DHT22;8305;-33.882;151.134;2022-11-23T02:17:28;26.80;99.90
16392;DHT22;8305;-33.882;151.134;2022-11-23T02:20:08;26.80;99.90
16392;DHT22;8305;-33.882;151.134;2022-11-23T02:22:45;26.80;99.90
16392;DHT22;8305;-33.882;151.134;2022-11-23T02:25:34;26.80;99.90
16392;DHT22;8305;-33.882;151.134;2022-11-23T02:28:10;26.80;99.90
16392;DHT22;8305;-33.882;151.134;2022-11-23T02:30:42;26.50;99.90
16392;DHT22;8305;-33.882;151.134;2022-11-23T02:33:14;26.40;99.90
16392;DHT22;8305;-33.882;151.134;2022-11-23T02:35:49;26.30;99.90
16392;DHT22;8305;-33.882;151.134;2022-11-23T02:38:22;26.40;99.90
16392;DHT22;8305;-33.882;151.134;2022-11-23T02:40:54;26.40;99.90
16392;DHT22;8305;-33.882;151.134;2022-11-23T02:43:30;26.40;99.90
16392;DHT22;8305;-33.882;151.134;2022-11-23T02:46:05;26.40;99.90
16392;DHT22;8305;-33.882;151.134;2022-11-23T02:48:51;26.50;99.90
16392;DHT22;8305;-33.882;151.134;2022-11-23T02:51:24;26.60;99.90
16392;DHT22;8305;-33.882;151.134;2022-11-23T02:53:57;26.60;99.90
16392;DHT22;8305;-33.882;151.134;2022-11-23T02:56:28;26.90;99.90
16392;DHT22;8305;-33.882;151.134;2022-11-23T02:59:03;26.90;99.90
16392;DHT22;8305;-33.882;151.134;2022-11-23T03:01:35;26.90;99.90
16392;DHT22;8305;-33.882;151.134;2022-11-23T03:04:07;27.00;99.90
16392;DHT22;8305;-33.882;151.134;2022-11-23T03:06:40;26.90;99.90
16392;DHT22;8305;-33.882;151.134;2022-11-23T03:09:11;26.90;99.90
16392;DHT22;8305;-33.882;151.134;2022-11-23T03:11:42;26.90;99.90
16392;DHT22;8305;-33.882;151.134;2022-11-23T03:14:18;26.90;99.90
16392;DHT22;8305;-33.882;151.134;2022-11-23T03:16:51;26.80;99.90
16392;DHT22;8305;-33.882;151.134;2022-11-23T03:19:21;26.90;99.90
16392;DHT22;8305;-33.882;151.134;2022-11-23T03:21:54;26.90;99.90
16392;DHT22;8305;-33.882;151.134;2022-11-23T03:24:25;27.00;99.90
16392;DHT22;8305;-33.882;151.134;2022-11-23T03:27:06;27.10;99.90
16392;DHT22;8305;-33.882;151.134;2022-11-23T03:29:43;27.20;99.90
16392;DHT22;8305;-33.882;151.134;2022-11-23T03:32:15;27.20;99.90
16392;DHT22;8305;-33.882;151.134;2022-11-23T03:34:46;27.20;99.90
16392;DHT22;8305;-33.882;151.134;2022-11-23T03:37:17;27.10;99.90
16392;DHT22;8305;-33.882;151.134;2022-11-23T03:39:48;27.10;99.90
16392;DHT22;8305;-33.882;151.134;2022-11-23T03:42:19;27.20;99.90
16392;DHT22;8305;-33.882;151.134;2022-11-23T03:44:54;27.30;99.90
16392;DHT22;8305;-33.882;151.134;2022-11-23T03:47:26;27.20;99.90
16392;DHT22;8305;-33.882;151.134;2022-11-23T03:50:00;27.10;99.90
16392;DHT22;8305;-33.882;151.134;2022-11-23T03:52:32;27.10;99.90
16392;DHT22;8305;-33.882;151.134;2022-11-23T03:55:06;27.20;99.90
16392;DHT22;8305;-33.882;151.134;2022-11-23T03:57:37;27.20;99.90
16392;DHT22;8305;-33.882;151.134;2022-11-23T04:00:11;27.30;99.90
16392;DHT22;8305;-33.882;151.134;2022-11-23T04:02:47;27.30;99.90
16392;DHT22;8305;-33.882;151.134;2022-11-23T04:05:19;27.40;99.90
16392;DHT22;8305;-33.882;151.134;2022-11-23T04:07:50;27.40;99.90
16392;DHT22;8305;-33.882;151.134;2022-11-23T04:10:40;27.40;99.90
16392;DHT22;8305;-33.882;151.134;2022-11-23T04:13:11;27.40;99.90
16392;DHT22;8305;-33.882;151.134;2022-11-23T04:15:46;27.30;99.90
16392;DHT22;8305;-33.882;151.134;2022-11-23T04:18:17;27.20;99.90
16392;DHT22;8305;-33.882;151.134;2022-11-23T04:20:49;27.40;99.90
16392;DHT22;8305;-33.882;151.134;2022-11-23T04:23:20;27.50;99.90
16392;DHT22;8305;-33.882;151.134;2022-11-23T04:25:51;27.40;99.90
16392;DHT22;8305;-33.882;151.134;2022-11-23T04:28:23;27.50;99.90
16392;DHT22;8305;-33.882;151.134;2022-11-23T04:30:57;27.40;99.90
16392;DHT22;8305;-33.882;151.134;2022-11-23T04:33:28;27.40;99.90
16392;DHT22;8305;-33.882;151.134;2022-11-23T04:35:59;27.40;99.90
16392;DHT22;8305;-33.882;151.134;2022-11-23T04:38:30;27.50;99.90
16392;DHT22;8305;-33.882;151.134;2022-11-23T04:41:03;27.50;99.90
16392;DHT22;8305;-33.882;151.134;2022-11-23T04:43:35;27.60;99.90
16392;DHT22;8305;-33.882;151.134;2022-11-23T04:46:10;27.60;99.90
16392;DHT22;8305;-33.882;151.134;2022-11-23T04:48:41;27.70;99.90
16392;DHT22;8305;-33.882;151.134;2022-11-23T04:51:13;27.80;99.90
16392;DHT22;8305;-33.882;151.134;2022-11-23T04:53:45;27.90;99.90
16392;DHT22;8305;-33.882;151.134;2022-11-23T04:56:16;27.80;99.90
16392;DHT22;8305;-33.882;151.134;2022-11-23T04:58:48;27.70;99.90
16392;DHT22;8305;-33.882;151.134;2022-11-23T05:01:22;27.70;99.90
16392;DHT22;8305;-33.882;151.134;2022-11-23T05:03:53;28.00;99.90
16392;DHT22;8305;-33.882;151.134;2022-11-23T05:06:25;28.10;99.90
16392;DHT22;8305;-33.882;151.134;2022-11-23T05:08:57;28.10;99.90
16392;DHT22;8305;-33.882;151.134;2022-11-23T05:11:28;28.20;99.90
16392;DHT22;8305;-33.882;151.134;2022-11-23T05:14:01;28.10;99.90
16392;DHT22;8305;-33.882;151.134;2022-11-23T05:16:36;28.10;99.90
16392;DHT22;8305;-33.882;151.134;2022-11-23T05:19:07;28.20;99.90
16392;DHT22;8305;-33.882;151.134;2022-11-23T05:21:38;28.20;99.90
16392;DHT22;8305;-33.882;151.134;2022-11-23T05:24:14;28.40;99.90
16392;DHT22;8305;-33.882;151.134;2022-11-23T05:26:45;28.40;99.90
16392;DHT22;8305;-33.882;151.134;2022-11-23T05:29:17;28.20;99.90
16392;DHT22;8305;-33.882;151.134;2022-11-23T05:31:58;28.20;99.90
16392;DHT22;8305;-33.882;151.134;2022-11-23T05:34:29;28.30;99.90
16392;DHT22;8305;-33.882;151.134;2022-11-23T05:37:00;28.50;99.90
16392;DHT22;8305;-33.882;151.134;2022-11-23T05:39:31;28.50;99.90
16392;DHT22;8305;-33.882;151.134;2022-11-23T05:42:02;28.50;99.90
16392;DHT22;8305;-33.882;151.134;2022-11-23T05:44:34;28.50;99.90
16392;DHT22;8305;-33.882;151.134;2022-11-23T05:47:08;28.50;99.90
16392;DHT22;8305;-33.882;151.134;2022-11-23T05:49:39;28.40;99.90
16392;DHT22;8305;-33.882;151.134;2022-11-23T05:52:10;28.30;99.90
16392;DHT22;8305;-33.882;151.134;2022-11-23T05:54:41;28.30;99.90
16392;DHT22;8305;-33.882;151.134;2022-11-23T05:57:12;28.40;99.90
16392;DHT22;8305;-33.882;151.134;2022-11-23T05:59:44;28.50;99.90
16392;DHT22;8305;-33.882;151.134;2022-11-23T06:02:18;28.50;99.90
16392;DHT22;8305;-33.882;151.134;2022-11-23T06:04:50;28.40;99.90
16392;DHT22;8305;-33.882;151.134;2022-11-23T06:07:26;28.40;99.90
16392;DHT22;8305;-33.882;151.134;2022-11-23T06:09:58;28.30;99.90
16392;DHT22;8305;-33.882;151.134;2022-11-23T06:12:29;28.30;99.90
16392;DHT22;8305;-33.882;151.134;2022-11-23T06:15:04;28.20;99.90
16392;DHT22;8305;-33.882;151.134;2022-11-23T06:17:39;28.20;99.90
16392;DHT22;8305;-33.882;151.134;2022-11-23T06:20:11;28.20;99.90
16392;DHT22;8305;-33.882;151.134;2022-11-23T06:22:43;28.30;99.90
16392;DHT22;8305;-33.882;151.134;2022-11-23T06:25:14;28.10;99.90
16392;DHT22;8305;-33.882;151.134;2022-11-23T06:27:53;28.00;99.90
16392;DHT22;8305;-33.882;151.134;2022-11-23T06:30:27;27.60;99.90
16392;DHT22;8305;-33.882;151.134;2022-11-23T06:33:02;27.20;99.90
16392;DHT22;8305;-33.882;151.134;2022-11-23T06:35:34;26.90;99.90
16392;DHT22;8305;-33.882;151.134;2022-11-23T06:38:04;26.60;99.90
16392;DHT22;8305;-33.882;151.134;2022-11-23T06:40:35;26.40;99.90
16392;DHT22;8305;-33.882;151.134;2022-11-23T06:43:06;26.10;99.90
16392;DHT22;8305;-33.882;151.134;2022-11-23T06:45:37;25.80;99.90
16392;DHT22;8305;-33.882;151.134;2022-11-23T06:48:11;25.60;99.90
16392;DHT22;8305;-33.882;151.134;2022-11-23T06:50:43;25.50;99.90
16392;DHT22;8305;-33.882;151.134;2022-11-23T06:53:14;25.40;99.90
16392;DHT22;8305;-33.882;151.134;2022-11-23T06:55:45;25.40;99.90
16392;DHT22;8305;-33.882;151.134;2022-11-23T06:58:16;25.20;99.90
16392;DHT22;8305;-33.882;151.134;2022-11-23T07:00:48;25.20;99.90
16392;DHT22;8305;-33.882;151.134;2022-11-23T07:03:23;25.20;99.90
16392;DHT22;8305;-33.882;151.134;2022-11-23T07:05:54;25.10;99.90
16392;DHT22;8305;-33.882;151.134;2022-11-23T07:08:27;25.00;99.90
16392;DHT22;8305;-33.882;151.134;2022-11-23T07:11:01;25.00;99.90
16392;DHT22;8305;-33.882;151.134;2022-11-23T07:13:33;24.90;99.90
16392;DHT22;8305;-33.882;151.134;2022-11-23T07:16:06;24.80;99.90
16392;DHT22;8305;-33.882;151.134;2022-11-23T07:18:40;24.60;99.90
16392;DHT22;8305;-33.882;151.134;2022-11-23T07:21:12;24.60;99.90
16392;DHT22;8305;-33.882;151.134;2022-11-23T07:23:50;24.60;99.90
16392;DHT22;8305;-33.882;151.134;2022-11-23T07:26:21;24.60;99.90
16392;DHT22;8305;-33.882;151.134;2022-11-23T07:28:52;24.60;99.90
16392;DHT22;8305;-33.882;151.134;2022-11-23T07:31:23;24.50;99.90
16392;DHT22;8305;-33.882;151.134;2022-11-23T07:33:58;24.50;99.90
16392;DHT22;8305;-33.882;151.134;2022-11-23T07:36:29;24.50;99.90
16392;DHT22;8305;-33.882;151.134;2022-11-23T07:39:00;24.50;99.90
16392;DHT22;8305;-33.882;151.134;2022-11-23T07:41:32;24.50;99.90
16392;DHT22;8305;-33.882;151.134;2022-11-23T07:44:04;24.60;99.90
16392;DHT22;8305;-33.882;151.134;2022-11-23T07:46:35;24.50;99.90
16392;DHT22;8305;-33.882;151.134;2022-11-23T07:49:10;24.40;99.90
16392;DHT22;8305;-33.882;151.134;2022-11-23T07:51:41;24.50;99.90
16392;DHT22;8305;-33.882;151.134;2022-11-23T07:54:12;24.50;99.90
16392;DHT22;8305;-33.882;151.134;2022-11-23T07:56:44;24.40;99.90
16392;DHT22;8305;-33.882;151.134;2022-11-23T07:59:15;24.50;99.90
16392;DHT22;8305;-33.882;151.134;2022-11-23T08:01:46;24.40;99.90
16392;DHT22;8305;-33.882;151.134;2022-11-23T08:04:21;24.50;99.90
16392;DHT22;8305;-33.882;151.134;2022-11-23T08:06:53;24.50;99.90
16392;DHT22;8305;-33.882;151.134;2022-11-23T08:09:24;24.30;99.90
16392;DHT22;8305;-33.882;151.134;2022-11-23T08:11:55;24.10;99.90
16392;DHT22;8305;-33.882;151.134;2022-11-23T08:14:27;23.80;99.90
16392;DHT22;8305;-33.882;151.134;2022-11-23T08:16:58;23.60;99.90
16392;DHT22;8305;-33.882;151.134;2022-11-23T08:19:32;23.50;99.90
16392;DHT22;8305;-33.882;151.134;2022-11-23T08:22:04;23.40;99.90
16392;DHT22;8305;-33.882;151.134;2022-11-23T08:24:35;23.20;99.90
16392;DHT22;8305;-33.882;151.134;2022-11-23T08:27:06;23.00;99.90
16392;DHT22;8305;-33.882;151.134;2022-11-23T08:29:38;22.90;99.90
16392;DHT22;8305;-33.882;151.134;2022-11-23T08:32:09;22.80;99.90
16392;DHT22;8305;-33.882;151.134;2022-11-23T08:34:44;22.70;99.90
16392;DHT22;8305;-33.882;151.134;2022-11-23T08:37:15;22.60;99.90
16392;DHT22;8305;-33.882;151.134;2022-11-23T08:39:47;22.60;99.90
16392;DHT22;8305;-33.882;151.134;2022-11-23T08:42:17;22.50;99.90
16392;DHT22;8305;-33.882;151.134;2022-11-23T08:44:49;22.40;99.90
16392;DHT22;8305;-33.882;151.134;2022-11-23T08:47:20;22.30;99.90
16392;DHT22;8305;-33.882;151.134;2022-11-23T08:49:54;22.20;99.90
16392;DHT22;8305;-33.882;151.134;2022-11-23T08:52:25;22.10;99.90
16392;DHT22;8305;-33.882;151.134;2022-11-23T08:54:56;22.00;99.90
16392;DHT22;8305;-33.882;151.134;2022-11-23T08:57:28;22.00;99.90
16392;DHT22;8305;-33.882;151.134;2022-11-23T08:59:59;21.90;99.90
16392;DHT22;8305;-33.882;151.134;2022-11-23T09:02:32;21.90;99.90
16392;DHT22;8305;-33.882;151.134;2022-11-23T09:05:06;21.80;99.90
16392;DHT22;8305;-33.882;151.134;2022-11-23T09:07:38;21.80;99.90
16392;DHT22;8305;-33.882;151.134;2022-11-23T09:10:09;21.70;99.90
16392;DHT22;8305;-33.882;151.134;2022-11-23T09:12:40;21.70;99.90
16392;DHT22;8305;-33.882;151.134;2022-11-23T09:15:12;21.70;99.90
16392;DHT22;8305;-33.882;151.134;2022-11-23T09:17:43;21.60;99.90
16392;DHT22;8305;-33.882;151.134;2022-11-23T09:20:17;21.60;99.90
16392;DHT22;8305;-33.882;151.134;2022-11-23T09:22:51;21.50;99.90
16392;DHT22;8305;-33.882;151.134;2022-11-23T09:25:23;21.50;99.90
16392;DHT22;8305;-33.882;151.134;2022-11-23T09:27:57;21.40;99.90
16392;DHT22;8305;-33.882;151.134;2022-11-23T09:30:31;21.40;99.90
16392;DHT22;8305;-33.882;151.134;2022-11-23T09:33:02;21.40;99.90
16392;DHT22;8305;-33.882;151.134;2022-11-23T09:35:38;21.40;99.90
16392;DHT22;8305;-33.882;151.134;2022-11-23T09:38:09;21.30;99.90
16392;DHT22;8305;-33.882;151.134;2022-11-23T09:40:41;21.30;99.90
16392;DHT22;8305;-33.882;151.134;2022-11-23T09:43:34;21.20;99.90
16392;DHT22;8305;-33.882;151.134;2022-11-23T09:46:13;21.20;99.90
16392;DHT22;8305;-33.882;151.134;2022-11-23T09:49:19;21.20;99.90
16392;DHT22;8305;-33.882;151.134;2022-11-23T09:51:55;21.20;99.90
16392;DHT22;8305;-33.882;151.134;2022-11-23T09:54:29;21.20;99.90
16392;DHT22;8305;-33.882;151.134;2022-11-23T09:57:03;21.20;99.90
16392;DHT22;8305;-33.882;151.134;2022-11-23T09:59:40;21.10;99.90
16392;DHT22;8305;-33.882;151.134;2022-11-23T10:02:18;21.10;99.90
16392;DHT22;8305;-33.882;151.134;2022-11-23T10:04:51;21.10;99.90
16392;DHT22;8305;-33.882;151.134;2022-11-23T10:07:36;21.10;99.90
16392;DHT22;8305;-33.882;151.134;2022-11-23T10:10:17;21.10;99.90
16392;DHT22;8305;-33.882;151.134;2022-11-23T10:12:56;21.00;99.90
16392;DHT22;8305;-33.882;151.134;2022-11-23T10:15:35;21.00;99.90
16392;DHT22;8305;-33.882;151.134;2022-11-23T10:18:24;21.00;99.90
16392;DHT22;8305;-33.882;151.134;2022-11-23T10:21:09;21.00;99.90
16392;DHT22;8305;-33.882;151.134;2022-11-23T10:24:01;21.00;99.90
16392;DHT22;8305;-33.882;151.134;2022-11-23T10:26:37;21.00;99.90
16392;DHT22;8305;-33.882;151.134;2022-11-23T10:29:13;21.00;99.90
16392;DHT22;8305;-33.882;151.134;2022-11-23T10:31:47;21.00;99.90
16392;DHT22;8305;-33.882;151.134;2022-11-23T10:34:23;21.00;99.90
16392;DHT22;8305;-33.882;151.134;2022-11-23T10:36:56;21.00;99.90
16392;DHT22;8305;-33.882;151.134;2022-11-23T10:39:31;21.00;99.90
16392;DHT22;8305;-33.882;151.134;2022-11-23T10:42:10;21.00;99.90
16392;DHT22;8305;-33.882;151.134;2022-11-23T10:44:45;21.10;99.90
16392;DHT22;8305;-33.882;151.134;2022-11-23T10:47:34;21.00;99.90
16392;DHT22;8305;-33.882;151.134;2022-11-23T10:50:24;21.00;99.90
16392;DHT22;8305;-33.882;151.134;2022-11-23T10:52:58;21.00;99.90
16392;DHT22;8305;-33.882;151.134;2022-11-23T10:55:44;21.00;99.90
16392;DHT22;8305;-33.882;151.134;2022-11-23T10:58:26;21.00;99.90
16392;DHT22;8305;-33.882;151.134;2022-11-23T11:01:00;20.90;99.90
16392;DHT22;8305;-33.882;151.134;2022-11-23T11:03:34;20.90;99.90
16392;DHT22;8305;-33.882;151.134;2022-11-23T11:06:05;20.90;99.90
16392;DHT22;8305;-33.882;151.134;2022-11-23T11:08:49;20.90;99.90
16392;DHT22;8305;-33.882;151.134;2022-11-23T11:11:27;20.80;99.90
16392;DHT22;8305;-33.882;151.134;2022-11-23T11:14:05;20.80;99.90
16392;DHT22;8305;-33.882;151.134;2022-11-23T11:16:48;20.80;99.90
16392;DHT22;8305;-33.882;151.134;2022-11-23T11:19:26;20.70;99.90
16392;DHT22;8305;-33.882;151.134;2022-11-23T11:21:58;20.60;99.90
16392;DHT22;8305;-33.882;151.134;2022-11-23T11:24:32;20.60;99.90
16392;DHT22;8305;-33.882;151.134;2022-11-23T11:27:13;20.60;99.90
16392;DHT22;8305;-33.882;151.134;2022-11-23T11:29:49;20.50;99.90
16392;DHT22;8305;-33.882;151.134;2022-11-23T11:32:24;20.50;99.90
16392;DHT22;8305;-33.882;151.134;2022-11-23T11:35:07;20.40;99.90
16392;DHT22;8305;-33.882;151.134;2022-11-23T11:37:42;20.40;99.90
16392;DHT22;8305;-33.882;151.134;2022-11-23T11:40:20;20.40;99.90
16392;DHT22;8305;-33.882;151.134;2022-11-23T11:42:58;20.40;99.90
16392;DHT22;8305;-33.882;151.134;2022-11-23T11:45:32;20.40;99.90
16392;DHT22;8305;-33.882;151.134;2022-11-23T11:48:09;20.50;99.90
16392;DHT22;8305;-33.882;151.134;2022-11-23T11:50:47;20.50;99.90
16392;DHT22;8305;-33.882;151.134;2022-11-23T11:53:24;20.60;99.90
16392;DHT22;8305;-33.882;151.134;2022-11-23T11:55:59;20.60;99.90
16392;DHT22;8305;-33.882;151.134;2022-11-23T11:58:37;20.60;99.90
16392;DHT22;8305;-33.882;151.134;2022-11-23T12:01:12;20.50;99.90
16392;DHT22;8305;-33.882;151.134;2022-11-23T12:03:51;20.50;99.90
16392;DHT22;8305;-33.882;151.134;2022-11-23T12:06:29;20.40;99.90
16392;DHT22;8305;-33.882;151.134;2022-11-23T12:09:08;20.40;99.90
16392;DHT22;8305;-33.882;151.134;2022-11-23T12:11:40;20.40;99.90
16392;DHT22;8305;-33.882;151.134;2022-11-23T12:14:15;20.30;99.90
16392;DHT22;8305;-33.882;151.134;2022-11-23T12:16:52;20.20;99.90
16392;DHT22;8305;-33.882;151.134;2022-11-23T12:19:32;20.10;99.90
16392;DHT22;8305;-33.882;151.134;2022-11-23T12:22:30;20.10;99.90
16392;DHT22;8305;-33.882;151.134;2022-11-23T12:25:16;20.00;99.90
16392;DHT22;8305;-33.882;151.134;2022-11-23T12:27:59;19.90;99.90
16392;DHT22;8305;-33.882;151.134;2022-11-23T12:30:41;19.90;99.90
16392;DHT22;8305;-33.882;151.134;2022-11-23T12:33:33;19.80;99.90
16392;DHT22;8305;-33.882;151.134;2022-11-23T12:36:17;19.80;99.90
16392;DHT22;8305;-33.882;151.134;2022-11-23T12:38:54;19.70;99.90
16392;DHT22;8305;-33.882;151.134;2022-11-23T12:41:36;19.70;99.90
16392;DHT22;8305;-33.882;151.134;2022-11-23T12:47:20;19.60;99.90
16392;DHT22;8305;-33.882;151.134;2022-11-23T12:49:57;19.60;99.90
16392;DHT22;8305;-33.882;151.134;2022-11-23T12:52:53;19.60;99.90
16392;DHT22;8305;-33.882;151.134;2022-11-23T12:55:34;19.60;99.90
16392;DHT22;8305;-33.882;151.134;2022-11-23T12:58:14;19.60;99.90
16392;DHT22;8305;-33.882;151.134;2022-11-23T13:00:52;19.60;99.90
16392;DHT22;8305;-33.882;151.134;2022-11-23T13:03:53;19.60;99.90
16392;DHT22;8305;-33.882;151.134;2022-11-23T13:06:51;19.60;99.90
16392;DHT22;8305;-33.882;151.134;2022-11-23T13:09:38;19.60;99.90
16392;DHT22;8305;-33.882;151.134;2022-11-23T13:12:25;19.50;99.90
16392;DHT22;8305;-33.882;151.134;2022-11-23T13:15:09;19.50;99.90
16392;DHT22;8305;-33.882;151.134;2022-11-23T13:17:51;19.50;99.90
16392;DHT22;8305;-33.882;151.134;2022-11-23T13:20:54;19.50;99.90
16392;DHT22;8305;-33.882;151.134;2022-11-23T13:23:34;19.40;99.90
16392;DHT22;8305;-33.882;151.134;2022-11-23T13:26:16;19.40;99.90
16392;DHT22;8305;-33.882;151.134;2022-11-23T13:28:49;19.40;99.90
16392;DHT22;8305;-33.882;151.134;2022-11-23T13:31:31;19.50;99.90
16392;DHT22;8305;-33.882;151.134;2022-11-23T13:34:06;19.50;99.90
16392;DHT22;8305;-33.882;151.134;2022-11-23T13:37:11;19.50;99.90
16392;DHT22;8305;-33.882;151.134;2022-11-23T13:40:00;19.50;99.90
16392;DHT22;8305;-33.882;151.134;2022-11-23T13:42:34;19.50;99.90
16392;DHT22;8305;-33.882;151.134;2022-11-23T13:45:25;19.40;99.90
16392;DHT22;8305;-33.882;151.134;2022-11-23T13:48:17;19.50;99.90
16392;DHT22;8305;-33.882;151.134;2022-11-23T13:50:59;19.40;99.90
16392;DHT22;8305;-33.882;151.134;2022-11-23T13:53:35;19.40;99.90
16392;DHT22;8305;-33.882;151.134;2022-11-23T13:56:22;19.40;99.90
16392;DHT22;8305;-33.882;151.134;2022-11-23T13:58:55;19.40;99.90
16392;DHT22;8305;-33.882;151.134;2022-11-23T14:04:35;19.30;99.90
16392;DHT22;8305;-33.882;151.134;2022-11-23T14:07:13;19.30;99.90
16392;DHT22;8305;-33.882;151.134;2022-11-23T14:09:50;19.30;99.90
16392;DHT22;8305;-33.882;151.134;2022-11-23T14:12:30;19.30;99.90
16392;DHT22;8305;-33.882;151.134;2022-11-23T14:15:07;19.30;99.90
16392;DHT22;8305;-33.882;151.134;2022-11-23T14:20:59;19.30;99.90
16392;DHT22;8305;-33.882;151.134;2022-11-23T14:24:01;19.20;99.90
16392;DHT22;8305;-33.882;151.134;2022-11-23T14:26:48;19.20;99.90
16392;DHT22;8305;-33.882;151.134;2022-11-23T14:29:45;19.10;99.90
16392;DHT22;8305;-33.882;151.134;2022-11-23T14:32:44;19.10;99.90
16392;DHT22;8305;-33.882;151.134;2022-11-23T14:35:27;19.10;99.90
16392;DHT22;8305;-33.882;151.134;2022-11-23T14:41:05;19.00;99.90
16392;DHT22;8305;-33.882;151.134;2022-11-23T14:43:41;19.00;99.90
16392;DHT22;8305;-33.882;151.134;2022-11-23T14:46:15;19.00;99.90
16392;DHT22;8305;-33.882;151.134;2022-11-23T14:48:48;18.90;99.90
16392;DHT22;8305;-33.882;151.134;2022-11-23T14:51:21;18.90;99.90
16392;DHT22;8305;-33.882;151.134;2022-11-23T14:53:54;18.90;99.90
16392;DHT22;8305;-33.882;151.134;2022-11-23T14:56:33;18.90;99.90
16392;DHT22;8305;-33.882;151.134;2022-11-23T14:59:09;18.90;99.90
16392;DHT22;8305;-33.882;151.134;2022-11-23T15:01:48;18.80;99.90
16392;DHT22;8305;-33.882;151.134;2022-11-23T15:04:24;18.80;99.90
16392;DHT22;8305;-33.882;151.134;2022-11-23T15:07:05;18.80;99.90
16392;DHT22;8305;-33.882;151.134;2022-11-23T15:09:46;18.80;99.90
16392;DHT22;8305;-33.882;151.134;2022-11-23T15:12:22;18.80;99.90
16392;DHT22;8305;-33.882;151.134;2022-11-23T15:14:57;18.70;99.90
16392;DHT22;8305;-33.882;151.134;2022-11-23T15:17:28;18.70;99.90
16392;DHT22;8305;-33.882;151.134;2022-11-23T15:20:01;18.60;99.90
16392;DHT22;8305;-33.882;151.134;2022-11-23T15:22:35;18.60;99.90
16392;DHT22;8305;-33.882;151.134;2022-11-23T15:25:10;18.60;99.90
16392;DHT22;8305;-33.882;151.134;2022-11-23T15:27:43;18.60;99.90
16392;DHT22;8305;-33.882;151.134;2022-11-23T15:30:31;18.60;99.90
16392;DHT22;8305;-33.882;151.134;2022-11-23T15:33:07;18.60;99.90
16392;DHT22;8305;-33.882;151.134;2022-11-23T15:35:40;18.50;99.90
16392;DHT22;8305;-33.882;151.134;2022-11-23T15:38:12;18.50;99.90
16392;DHT22;8305;-33.882;151.134;2022-11-23T15:40:45;18.50;99.90
16392;DHT22;8305;-33.882;151.134;2022-11-23T15:43:17;18.50;99.90
16392;DHT22;8305;-33.882;151.134;2022-11-23T15:46:03;18.50;99.90
16392;DHT22;8305;-33.882;151.134;2022-11-23T15:48:35;18.50;99.90
16392;DHT22;8305;-33.882;151.134;2022-11-23T15:51:17;18.40;99.90
16392;DHT22;8305;-33.882;151.134;2022-11-23T15:53:53;18.40;99.90
16392;DHT22;8305;-33.882;151.134;2022-11-23T15:56:27;18.40;99.90
16392;DHT22;8305;-33.882;151.134;2022-11-23T15:59:01;18.40;99.90
16392;DHT22;8305;-33.882;151.134;2022-11-23T16:01:38;18.40;99.90
16392;DHT22;8305;-33.882;151.134;2022-11-23T16:04:25;18.40;99.90
16392;DHT22;8305;-33.882;151.134;2022-11-23T16:06:57;18.30;99.90